San Antonio, Texas
Traffic Map
Current Weather Conditions
San Antonio, Texas
Overcast Light Rain
Overcast
48°
Feels Like: 44°
Wind Chill: 44° Ceiling: 1600
Heat Index: 48° Visibility: 10mi
Dew Point: 45° Wind: 9mph
Humidity: 89% Direction: 30° (NNE)
Pressure: 30.2in Gusts: 0mph
Raw Report DataKSAT 191451Z 03008KT 10SM -RA OVC016 09/07 A3020 RMK AO2 RAB49 SLP217 T00890072 51013 PNO $
Traffic Incident Summary
Active as of:
Severity:
Category:
InformationThere was an issue retrieving the traffic information for this location. Please try a different location or try again shortly.
Advertisements